sensor_id;sensor_type;location;lat;lon;timestamp;temperature;humidity
21722;DHT22;11023;48.274;7.794;2023-07-31T00:00:52;15.30;99.90
21722;DHT22;11023;48.274;7.794;2023-07-31T00:03:18;15.40;99.90
21722;DHT22;11023;48.274;7.794;2023-07-31T00:05:44;15.40;99.90
21722;DHT22;11023;48.274;7.794;2023-07-31T00:08:10;15.30;99.90
21722;DHT22;11023;48.274;7.794;2023-07-31T00:10:35;15.30;99.90
21722;DHT22;11023;48.274;7.794;2023-07-31T00:13:03;15.20;99.90
21722;DHT22;11023;48.274;7.794;2023-07-31T00:15:29;15.20;99.90
21722;DHT22;11023;48.274;7.794;2023-07-31T00:17:55;15.10;99.90
21722;DHT22;11023;48.274;7.794;2023-07-31T00:20:21;15.10;99.90
21722;DHT22;11023;48.274;7.794;2023-07-31T00:22:47;15.10;99.90
21722;DHT22;11023;48.274;7.794;2023-07-31T00:25:12;15.10;99.90
21722;DHT22;11023;48.274;7.794;2023-07-31T00:27:38;15.20;99.90
21722;DHT22;11023;48.274;7.794;2023-07-31T00:30:04;15.10;99.90
21722;DHT22;11023;48.274;7.794;2023-07-31T00:32:30;15.10;99.90
21722;DHT22;11023;48.274;7.794;2023-07-31T00:34:56;15.20;99.90
21722;DHT22;11023;48.274;7.794;2023-07-31T00:37:21;15.20;99.90
21722;DHT22;11023;48.274;7.794;2023-07-31T00:39:48;15.20;99.90
21722;DHT22;11023;48.274;7.794;2023-07-31T00:42:14;15.10;99.90
21722;DHT22;11023;48.274;7.794;2023-07-31T00:44:39;15.10;99.90
21722;DHT22;11023;48.274;7.794;2023-07-31T00:47:05;15.10;99.90
21722;DHT22;11023;48.274;7.794;2023-07-31T00:49:31;15.10;99.90
21722;DHT22;11023;48.274;7.794;2023-07-31T00:51:57;15.10;99.90
21722;DHT22;11023;48.274;7.794;2023-07-31T00:54:23;15.20;99.90
21722;DHT22;11023;48.274;7.794;2023-07-31T00:56:50;15.10;99.90
21722;DHT22;11023;48.274;7.794;2023-07-31T00:59:18;15.10;99.90
21722;DHT22;11023;48.274;7.794;2023-07-31T01:01:44;15.10;99.90
21722;DHT22;11023;48.274;7.794;2023-07-31T01:04:11;15.10;99.90
21722;DHT22;11023;48.274;7.794;2023-07-31T01:07:06;15.10;99.90
21722;DHT22;11023;48.274;7.794;2023-07-31T01:09:36;15.10;99.90
21722;DHT22;11023;48.274;7.794;2023-07-31T01:12:03;15.10;99.90
21722;DHT22;11023;48.274;7.794;2023-07-31T01:14:30;15.10;99.90
21722;DHT22;11023;48.274;7.794;2023-07-31T01:16:55;15.20;99.90
21722;DHT22;11023;48.274;7.794;2023-07-31T01:19:23;15.20;99.90
21722;DHT22;11023;48.274;7.794;2023-07-31T01:22:15;15.20;99.90
21722;DHT22;11023;48.274;7.794;2023-07-31T01:25:05;15.20;99.90
21722;DHT22;11023;48.274;7.794;2023-07-31T01:27:48;15.20;99.90
21722;DHT22;11023;48.274;7.794;2023-07-31T01:30:22;15.20;99.90
21722;DHT22;11023;48.274;7.794;2023-07-31T01:32:51;15.20;99.90
21722;DHT22;11023;48.274;7.794;2023-07-31T01:35:20;15.20;99.90
21722;DHT22;11023;48.274;7.794;2023-07-31T01:37:46;15.20;99.90
21722;DHT22;11023;48.274;7.794;2023-07-31T01:40:12;15.20;99.90
21722;DHT22;11023;48.274;7.794;2023-07-31T01:42:37;15.20;99.90
21722;DHT22;11023;48.274;7.794;2023-07-31T01:45:03;15.20;99.90
21722;DHT22;11023;48.274;7.794;2023-07-31T01:47:29;15.20;99.90
21722;DHT22;11023;48.274;7.794;2023-07-31T01:49:55;15.20;99.90
21722;DHT22;11023;48.274;7.794;2023-07-31T01:52:20;15.30;99.90
21722;DHT22;11023;48.274;7.794;2023-07-31T01:54:46;15.20;99.90
21722;DHT22;11023;48.274;7.794;2023-07-31T01:57:12;15.20;99.90
21722;DHT22;11023;48.274;7.794;2023-07-31T01:59:37;15.20;99.90
21722;DHT22;11023;48.274;7.794;2023-07-31T02:02:03;15.30;99.90
21722;DHT22;11023;48.274;7.794;2023-07-31T02:04:29;15.30;99.90
21722;DHT22;11023;48.274;7.794;2023-07-31T02:06:54;15.30;99.90
21722;DHT22;11023;48.274;7.794;2023-07-31T02:09:20;15.30;99.90
21722;DHT22;11023;48.274;7.794;2023-07-31T02:11:46;15.30;99.90
21722;DHT22;11023;48.274;7.794;2023-07-31T02:14:11;15.30;99.90
21722;DHT22;11023;48.274;7.794;2023-07-31T02:16:37;15.30;99.90
21722;DHT22;11023;48.274;7.794;2023-07-31T02:19:03;15.30;99.90
21722;DHT22;11023;48.274;7.794;2023-07-31T02:21:28;15.30;99.90
21722;DHT22;11023;48.274;7.794;2023-07-31T02:23:54;15.30;99.90
21722;DHT22;11023;48.274;7.794;2023-07-31T02:26:19;15.30;99.90
21722;DHT22;11023;48.274;7.794;2023-07-31T02:28:45;15.30;99.90
21722;DHT22;11023;48.274;7.794;2023-07-31T02:31:11;15.30;99.90
21722;DHT22;11023;48.274;7.794;2023-07-31T02:33:36;15.40;99.90
21722;DHT22;11023;48.274;7.794;2023-07-31T02:36:02;15.40;99.90
21722;DHT22;11023;48.274;7.794;2023-07-31T02:38:28;15.40;99.90
21722;DHT22;11023;48.274;7.794;2023-07-31T02:40:53;15.50;99.90
21722;DHT22;11023;48.274;7.794;2023-07-31T02:43:19;15.50;99.90
21722;DHT22;11023;48.274;7.794;2023-07-31T02:45:45;15.50;99.90
21722;DHT22;11023;48.274;7.794;2023-07-31T02:48:10;15.50;99.90
21722;DHT22;11023;48.274;7.794;2023-07-31T02:50:37;15.50;99.90
21722;DHT22;11023;48.274;7.794;2023-07-31T02:53:02;15.40;99.90
21722;DHT22;11023;48.274;7.794;2023-07-31T02:55:28;15.40;99.90
21722;DHT22;11023;48.274;7.794;2023-07-31T02:57:53;15.40;99.90
21722;DHT22;11023;48.274;7.794;2023-07-31T03:00:19;15.40;99.90
21722;DHT22;11023;48.274;7.794;2023-07-31T03:02:45;15.40;99.90
21722;DHT22;11023;48.274;7.794;2023-07-31T03:05:10;15.50;99.90
21722;DHT22;11023;48.274;7.794;2023-07-31T03:07:36;15.40;99.90
21722;DHT22;11023;48.274;7.794;2023-07-31T03:10:02;15.40;99.90
21722;DHT22;11023;48.274;7.794;2023-07-31T03:12:27;15.50;99.90
21722;DHT22;11023;48.274;7.794;2023-07-31T03:14:53;15.40;99.90
21722;DHT22;11023;48.274;7.794;2023-07-31T03:17:19;15.40;99.90
21722;DHT22;11023;48.274;7.794;2023-07-31T03:19:44;15.30;99.90
21722;DHT22;11023;48.274;7.794;2023-07-31T03:22:10;15.30;99.90
21722;DHT22;11023;48.274;7.794;2023-07-31T03:24:35;15.20;99.90
21722;DHT22;11023;48.274;7.794;2023-07-31T03:27:01;15.20;99.90
21722;DHT22;11023;48.274;7.794;2023-07-31T03:29:27;15.20;99.90
21722;DHT22;11023;48.274;7.794;2023-07-31T03:31:52;15.10;99.90
21722;DHT22;11023;48.274;7.794;2023-07-31T03:34:18;15.10;99.90
21722;DHT22;11023;48.274;7.794;2023-07-31T03:36:44;15.10;99.90
21722;DHT22;11023;48.274;7.794;2023-07-31T03:39:10;15.10;99.90
21722;DHT22;11023;48.274;7.794;2023-07-31T03:41:35;15.10;99.90
21722;DHT22;11023;48.274;7.794;2023-07-31T03:44:01;15.10;99.90
21722;DHT22;11023;48.274;7.794;2023-07-31T03:46:27;15.10;99.90
21722;DHT22;11023;48.274;7.794;2023-07-31T03:48:53;15.10;99.90
21722;DHT22;11023;48.274;7.794;2023-07-31T03:51:18;15.10;99.90
21722;DHT22;11023;48.274;7.794;2023-07-31T03:53:44;15.10;99.90
21722;DHT22;11023;48.274;7.794;2023-07-31T03:56:10;15.10;99.90
21722;DHT22;11023;48.274;7.794;2023-07-31T03:58:36;15.10;99.90
21722;DHT22;11023;48.274;7.794;2023-07-31T04:01:02;15.10;99.90
21722;DHT22;11023;48.274;7.794;2023-07-31T04:03:28;15.10;99.90
21722;DHT22;11023;48.274;7.794;2023-07-31T04:05:54;15.10;99.90
21722;DHT22;11023;48.274;7.794;2023-07-31T04:08:22;15.20;99.90
21722;DHT22;11023;48.274;7.794;2023-07-31T04:10:47;15.20;99.90
21722;DHT22;11023;48.274;7.794;2023-07-31T04:13:13;15.20;99.90
21722;DHT22;11023;48.274;7.794;2023-07-31T04:15:39;15.20;99.90
21722;DHT22;11023;48.274;7.794;2023-07-31T04:18:05;15.20;99.90
21722;DHT22;11023;48.274;7.794;2023-07-31T04:20:31;15.20;99.90
21722;DHT22;11023;48.274;7.794;2023-07-31T04:22:56;15.30;99.90
21722;DHT22;11023;48.274;7.794;2023-07-31T04:25:22;15.30;99.90
21722;DHT22;11023;48.274;7.794;2023-07-31T04:27:48;15.30;99.90
21722;DHT22;11023;48.274;7.794;2023-07-31T04:30:13;15.30;99.90
21722;DHT22;11023;48.274;7.794;2023-07-31T04:32:39;15.40;99.90
21722;DHT22;11023;48.274;7.794;2023-07-31T04:35:05;15.40;99.90
21722;DHT22;11023;48.274;7.794;2023-07-31T04:37:31;15.40;99.90
21722;DHT22;11023;48.274;7.794;2023-07-31T04:39:57;15.40;99.90
21722;DHT22;11023;48.274;7.794;2023-07-31T04:42:22;15.50;99.90
21722;DHT22;11023;48.274;7.794;2023-07-31T04:44:48;15.50;99.90
21722;DHT22;11023;48.274;7.794;2023-07-31T04:47:14;15.60;99.90
21722;DHT22;11023;48.274;7.794;2023-07-31T04:49:40;15.60;99.90
21722;DHT22;11023;48.274;7.794;2023-07-31T04:52:05;15.70;99.90
21722;DHT22;11023;48.274;7.794;2023-07-31T04:54:31;15.70;99.90
21722;DHT22;11023;48.274;7.794;2023-07-31T04:56:57;15.80;99.90
21722;DHT22;11023;48.274;7.794;2023-07-31T04:59:23;15.80;99.90
21722;DHT22;11023;48.274;7.794;2023-07-31T05:01:48;15.90;99.90
21722;DHT22;11023;48.274;7.794;2023-07-31T05:04:14;15.90;99.90
21722;DHT22;11023;48.274;7.794;2023-07-31T05:06:40;16.00;99.90
21722;DHT22;11023;48.274;7.794;2023-07-31T05:09:06;16.00;99.90
21722;DHT22;11023;48.274;7.794;2023-07-31T05:11:32;16.00;99.90
21722;DHT22;11023;48.274;7.794;2023-07-31T05:13:58;16.10;99.90
21722;DHT22;11023;48.274;7.794;2023-07-31T05:16:23;16.10;99.90
21722;DHT22;11023;48.274;7.794;2023-07-31T05:18:49;16.20;99.90
21722;DHT22;11023;48.274;7.794;2023-07-31T05:21:15;16.20;99.90
21722;DHT22;11023;48.274;7.794;2023-07-31T05:23:40;16.20;99.90
21722;DHT22;11023;48.274;7.794;2023-07-31T05:26:07;16.20;99.90
21722;DHT22;11023;48.274;7.794;2023-07-31T05:28:34;16.20;99.90
21722;DHT22;11023;48.274;7.794;2023-07-31T05:31:01;16.20;99.90
21722;DHT22;11023;48.274;7.794;2023-07-31T05:33:27;16.30;99.90
21722;DHT22;11023;48.274;7.794;2023-07-31T05:35:52;16.30;99.90
21722;DHT22;11023;48.274;7.794;2023-07-31T05:38:18;16.30;99.90
21722;DHT22;11023;48.274;7.794;2023-07-31T05:40:44;16.30;99.90
21722;DHT22;11023;48.274;7.794;2023-07-31T05:43:11;16.40;99.90
21722;DHT22;11023;48.274;7.794;2023-07-31T05:45:37;16.40;99.90
21722;DHT22;11023;48.274;7.794;2023-07-31T05:48:03;16.40;99.90
21722;DHT22;11023;48.274;7.794;2023-07-31T05:50:30;16.50;99.90
21722;DHT22;11023;48.274;7.794;2023-07-31T05:52:55;16.50;99.90
21722;DHT22;11023;48.274;7.794;2023-07-31T05:55:21;16.60;99.90
21722;DHT22;11023;48.274;7.794;2023-07-31T05:57:47;16.60;99.90
21722;DHT22;11023;48.274;7.794;2023-07-31T06:00:13;16.60;99.90
21722;DHT22;11023;48.274;7.794;2023-07-31T06:02:40;16.70;99.90
21722;DHT22;11023;48.274;7.794;2023-07-31T06:05:06;16.80;99.90
21722;DHT22;11023;48.274;7.794;2023-07-31T06:07:32;16.80;99.90
21722;DHT22;11023;48.274;7.794;2023-07-31T06:09:58;16.90;99.90
21722;DHT22;11023;48.274;7.794;2023-07-31T06:12:32;17.00;99.90
21722;DHT22;11023;48.274;7.794;2023-07-31T06:14:58;17.00;99.90
21722;DHT22;11023;48.274;7.794;2023-07-31T06:17:25;17.20;99.90
21722;DHT22;11023;48.274;7.794;2023-07-31T06:19:51;17.30;99.90
21722;DHT22;11023;48.274;7.794;2023-07-31T06:22:17;17.30;99.90
21722;DHT22;11023;48.274;7.794;2023-07-31T06:24:43;17.50;99.90
21722;DHT22;11023;48.274;7.794;2023-07-31T06:27:10;17.50;99.90
21722;DHT22;11023;48.274;7.794;2023-07-31T06:29:36;17.60;99.90
21722;DHT22;11023;48.274;7.794;2023-07-31T06:32:02;17.70;99.90
21722;DHT22;11023;48.274;7.794;2023-07-31T06:34:28;17.70;99.90
21722;DHT22;11023;48.274;7.794;2023-07-31T06:36:53;17.80;99.90
21722;DHT22;11023;48.274;7.794;2023-07-31T06:39:19;17.80;99.90
21722;DHT22;11023;48.274;7.794;2023-07-31T06:41:45;17.80;99.90
21722;DHT22;11023;48.274;7.794;2023-07-31T06:44:11;17.90;99.90
21722;DHT22;11023;48.274;7.794;2023-07-31T06:46:36;17.90;99.90
21722;DHT22;11023;48.274;7.794;2023-07-31T06:49:02;18.00;99.90
21722;DHT22;11023;48.274;7.794;2023-07-31T06:51:28;18.00;99.90
21722;DHT22;11023;48.274;7.794;2023-07-31T06:53:53;18.00;99.90
21722;DHT22;11023;48.274;7.794;2023-07-31T06:56:21;18.10;99.90
21722;DHT22;11023;48.274;7.794;2023-07-31T06:58:46;18.20;99.90
21722;DHT22;11023;48.274;7.794;2023-07-31T07:01:12;18.30;99.90
21722;DHT22;11023;48.274;7.794;2023-07-31T07:03:37;18.40;99.90
21722;DHT22;11023;48.274;7.794;2023-07-31T07:06:03;18.50;99.90
21722;DHT22;11023;48.274;7.794;2023-07-31T07:08:29;18.50;99.90
21722;DHT22;11023;48.274;7.794;2023-07-31T07:10:55;18.50;99.90
21722;DHT22;11023;48.274;7.794;2023-07-31T07:13:21;18.60;99.90
21722;DHT22;11023;48.274;7.794;2023-07-31T07:15:50;18.60;99.90
21722;DHT22;11023;48.274;7.794;2023-07-31T07:18:17;18.70;99.90
21722;DHT22;11023;48.274;7.794;2023-07-31T07:20:49;18.90;99.90
21722;DHT22;11023;48.274;7.794;2023-07-31T07:23:15;19.00;99.90
21722;DHT22;11023;48.274;7.794;2023-07-31T07:25:40;19.30;99.90
21722;DHT22;11023;48.274;7.794;2023-07-31T07:28:06;19.50;99.90
21722;DHT22;11023;48.274;7.794;2023-07-31T07:30:31;19.70;99.90
21722;DHT22;11023;48.274;7.794;2023-07-31T07:32:57;19.90;99.90
21722;DHT22;11023;48.274;7.794;2023-07-31T07:35:23;20.00;99.90
21722;DHT22;11023;48.274;7.794;2023-07-31T07:37:49;20.20;99.90
21722;DHT22;11023;48.274;7.794;2023-07-31T07:40:17;20.40;99.90
21722;DHT22;11023;48.274;7.794;2023-07-31T07:42:44;20.60;99.90
21722;DHT22;11023;48.274;7.794;2023-07-31T07:45:10;20.70;99.90
21722;DHT22;11023;48.274;7.794;2023-07-31T07:47:37;20.80;99.90
21722;DHT22;11023;48.274;7.794;2023-07-31T07:50:03;20.90;99.90
21722;DHT22;11023;48.274;7.794;2023-07-31T07:52:28;20.90;99.90
21722;DHT22;11023;48.274;7.794;2023-07-31T07:54:54;21.00;99.90
21722;DHT22;11023;48.274;7.794;2023-07-31T07:57:20;21.20;99.90
21722;DHT22;11023;48.274;7.794;2023-07-31T07:59:46;21.20;99.90
21722;DHT22;11023;48.274;7.794;2023-07-31T08:02:12;21.30;99.90
21722;DHT22;11023;48.274;7.794;2023-07-31T08:04:38;21.40;99.90
21722;DHT22;11023;48.274;7.794;2023-07-31T08:07:04;21.60;99.90
21722;DHT22;11023;48.274;7.794;2023-07-31T08:09:29;21.60;99.90
21722;DHT22;11023;48.274;7.794;2023-07-31T08:11:55;21.80;99.90
21722;DHT22;11023;48.274;7.794;2023-07-31T08:14:23;21.80;99.90
21722;DHT22;11023;48.274;7.794;2023-07-31T08:16:49;21.90;99.90
21722;DHT22;11023;48.274;7.794;2023-07-31T08:19:14;22.00;99.90
21722;DHT22;11023;48.274;7.794;2023-07-31T08:21:40;22.10;99.90
21722;DHT22;11023;48.274;7.794;2023-07-31T08:24:06;22.00;99.90
21722;DHT22;11023;48.274;7.794;2023-07-31T08:26:33;22.20;99.90
21722;DHT22;11023;48.274;7.794;2023-07-31T08:29:02;22.20;99.90
21722;DHT22;11023;48.274;7.794;2023-07-31T08:31:27;22.30;99.90
21722;DHT22;11023;48.274;7.794;2023-07-31T08:33:55;22.30;99.90
21722;DHT22;11023;48.274;7.794;2023-07-31T08:36:21;22.40;99.90
21722;DHT22;11023;48.274;7.794;2023-07-31T08:38:47;22.60;99.90
21722;DHT22;11023;48.274;7.794;2023-07-31T08:41:13;22.70;99.90
21722;DHT22;11023;48.274;7.794;2023-07-31T08:43:39;22.70;99.90
21722;DHT22;11023;48.274;7.794;2023-07-31T08:46:05;22.80;99.90
21722;DHT22;11023;48.274;7.794;2023-07-31T08:48:31;22.70;99.90
21722;DHT22;11023;48.274;7.794;2023-07-31T08:50:58;22.80;99.90
21722;DHT22;11023;48.274;7.794;2023-07-31T08:53:24;22.70;99.90
21722;DHT22;11023;48.274;7.794;2023-07-31T08:55:50;22.80;99.90
21722;DHT22;11023;48.274;7.794;2023-07-31T08:58:18;22.70;99.90
21722;DHT22;11023;48.274;7.794;2023-07-31T09:00:46;22.80;99.90
21722;DHT22;11023;48.274;7.794;2023-07-31T09:03:17;22.80;99.90
21722;DHT22;11023;48.274;7.794;2023-07-31T09:05:44;22.80;99.90
21722;DHT22;11023;48.274;7.794;2023-07-31T09:08:12;22.90;99.90
21722;DHT22;11023;48.274;7.794;2023-07-31T09:10:42;22.90;99.90
21722;DHT22;11023;48.274;7.794;2023-07-31T09:13:09;23.00;99.90
21722;DHT22;11023;48.274;7.794;2023-07-31T09:15:36;23.10;99.90
21722;DHT22;11023;48.274;7.794;2023-07-31T09:18:04;23.30;99.90
21722;DHT22;11023;48.274;7.794;2023-07-31T09:20:30;23.40;99.90
21722;DHT22;11023;48.274;7.794;2023-07-31T09:23:08;23.50;99.90
21722;DHT22;11023;48.274;7.794;2023-07-31T09:25:35;23.50;99.90
21722;DHT22;11023;48.274;7.794;2023-07-31T09:28:05;23.60;99.90
21722;DHT22;11023;48.274;7.794;2023-07-31T09:30:52;23.70;99.90
21722;DHT22;11023;48.274;7.794;2023-07-31T09:33:18;23.70;99.90
21722;DHT22;11023;48.274;7.794;2023-07-31T09:35:44;23.70;99.90
21722;DHT22;11023;48.274;7.794;2023-07-31T09:38:12;23.70;99.90
21722;DHT22;11023;48.274;7.794;2023-07-31T09:40:43;23.70;99.90
21722;DHT22;11023;48.274;7.794;2023-07-31T09:43:11;23.60;99.90
21722;DHT22;11023;48.274;7.794;2023-07-31T09:45:41;23.50;99.90
21722;DHT22;11023;48.274;7.794;2023-07-31T09:48:09;23.50;99.90
21722;DHT22;11023;48.274;7.794;2023-07-31T09:50:37;23.60;99.90
21722;DHT22;11023;48.274;7.794;2023-07-31T09:53:04;23.70;99.90
21722;DHT22;11023;48.274;7.794;2023-07-31T09:55:29;23.80;99.90
21722;DHT22;11023;48.274;7.794;2023-07-31T09:57:57;23.80;99.90
21722;DHT22;11023;48.274;7.794;2023-07-31T10:00:24;23.90;99.90
21722;DHT22;11023;48.274;7.794;2023-07-31T10:02:54;24.10;99.90
21722;DHT22;11023;48.274;7.794;2023-07-31T10:05:20;24.30;99.90
21722;DHT22;11023;48.274;7.794;2023-07-31T10:07:53;24.30;99.90
21722;DHT22;11023;48.274;7.794;2023-07-31T10:10:20;24.30;99.90
21722;DHT22;11023;48.274;7.794;2023-07-31T10:12:48;24.30;99.90
21722;DHT22;11023;48.274;7.794;2023-07-31T10:15:15;24.30;99.90
21722;DHT22;11023;48.274;7.794;2023-07-31T10:17:41;24.30;99.90
21722;DHT22;11023;48.274;7.794;2023-07-31T10:20:07;24.50;99.90
21722;DHT22;11023;48.274;7.794;2023-07-31T10:22:34;24.70;99.90
21722;DHT22;11023;48.274;7.794;2023-07-31T10:25:00;24.80;99.90
21722;DHT22;11023;48.274;7.794;2023-07-31T10:27:27;24.90;99.90
21722;DHT22;11023;48.274;7.794;2023-07-31T10:29:57;25.10;99.90
21722;DHT22;11023;48.274;7.794;2023-07-31T10:32:25;25.10;99.90
21722;DHT22;11023;48.274;7.794;2023-07-31T10:34:51;25.10;99.90
21722;DHT22;11023;48.274;7.794;2023-07-31T10:37:36;25.10;99.90
21722;DHT22;11023;48.274;7.794;2023-07-31T10:40:09;25.20;99.90
21722;DHT22;11023;48.274;7.794;2023-07-31T10:45:10;25.20;99.90
21722;DHT22;11023;48.274;7.794;2023-07-31T10:47:42;25.20;99.90
21722;DHT22;11023;48.274;7.794;2023-07-31T10:50:12;25.20;99.90
21722;DHT22;11023;48.274;7.794;2023-07-31T10:52:38;25.10;99.90
21722;DHT22;11023;48.274;7.794;2023-07-31T10:55:31;25.10;99.90
21722;DHT22;11023;48.274;7.794;2023-07-31T10:58:08;25.00;99.90
21722;DHT22;11023;48.274;7.794;2023-07-31T11:00:37;24.90;99.90
21722;DHT22;11023;48.274;7.794;2023-07-31T11:08:23;24.70;99.90
21722;DHT22;11023;48.274;7.794;2023-07-31T11:11:05;24.70;99.90
21722;DHT22;11023;48.274;7.794;2023-07-31T11:15:58;24.70;99.90
21722;DHT22;11023;48.274;7.794;2023-07-31T11:18:26;24.70;99.90
21722;DHT22;11023;48.274;7.794;2023-07-31T11:20:52;24.70;99.90
21722;DHT22;11023;48.274;7.794;2023-07-31T11:23:19;24.70;99.90
21722;DHT22;11023;48.274;7.794;2023-07-31T11:25:45;24.70;99.90
21722;DHT22;11023;48.274;7.794;2023-07-31T11:28:17;24.60;99.90
21722;DHT22;11023;48.274;7.794;2023-07-31T11:30:44;24.60;99.90
21722;DHT22;11023;48.274;7.794;2023-07-31T11:33:12;24.40;99.90
21722;DHT22;11023;48.274;7.794;2023-07-31T11:35:46;24.40;99.90
21722;DHT22;11023;48.274;7.794;2023-07-31T11:40:48;24.20;99.90
21722;DHT22;11023;48.274;7.794;2023-07-31T11:43:14;24.20;99.90
21722;DHT22;11023;48.274;7.794;2023-07-31T11:45:47;24.20;99.90
21722;DHT22;11023;48.274;7.794;2023-07-31T11:48:20;24.30;99.90
21722;DHT22;11023;48.274;7.794;2023-07-31T11:50:47;24.30;99.90
21722;DHT22;11023;48.274;7.794;2023-07-31T11:53:14;24.40;99.90
21722;DHT22;11023;48.274;7.794;2023-07-31T11:55:41;24.40;99.90
21722;DHT22;11023;48.274;7.794;2023-07-31T11:58:07;24.50;99.90
21722;DHT22;11023;48.274;7.794;2023-07-31T12:00:33;24.70;99.90
21722;DHT22;11023;48.274;7.794;2023-07-31T12:02:59;25.00;99.90
21722;DHT22;11023;48.274;7.794;2023-07-31T12:05:24;25.30;99.90
21722;DHT22;11023;48.274;7.794;2023-07-31T12:07:54;25.40;99.90
21722;DHT22;11023;48.274;7.794;2023-07-31T12:10:31;25.40;99.90
21722;DHT22;11023;48.274;7.794;2023-07-31T12:13:11;25.40;99.90
21722;DHT22;11023;48.274;7.794;2023-07-31T12:15:40;25.40;99.90
21722;DHT22;11023;48.274;7.794;2023-07-31T12:18:11;25.40;99.90
21722;DHT22;11023;48.274;7.794;2023-07-31T12:20:46;25.40;99.90
21722;DHT22;11023;48.274;7.794;2023-07-31T12:23:20;25.40;99.90
21722;DHT22;11023;48.274;7.794;2023-07-31T12:26:09;25.40;99.90
21722;DHT22;11023;48.274;7.794;2023-07-31T12:31:21;25.70;99.90
21722;DHT22;11023;48.274;7.794;2023-07-31T12:33:49;26.00;99.90
21722;DHT22;11023;48.274;7.794;2023-07-31T12:36:17;26.30;99.90
21722;DHT22;11023;48.274;7.794;2023-07-31T12:38:44;26.40;99.90
21722;DHT22;11023;48.274;7.794;2023-07-31T12:41:10;26.60;99.90
21722;DHT22;11023;48.274;7.794;2023-07-31T12:43:37;26.90;99.90
21722;DHT22;11023;48.274;7.794;2023-07-31T12:46:03;26.90;99.90
21722;DHT22;11023;48.274;7.794;2023-07-31T12:48:29;26.80;99.90
21722;DHT22;11023;48.274;7.794;2023-07-31T12:50:55;26.80;99.90
21722;DHT22;11023;48.274;7.794;2023-07-31T12:53:21;26.70;99.90
21722;DHT22;11023;48.274;7.794;2023-07-31T12:55:47;26.60;99.90
21722;DHT22;11023;48.274;7.794;2023-07-31T12:58:13;26.60;99.90
21722;DHT22;11023;48.274;7.794;2023-07-31T13:00:38;26.60;99.90
21722;DHT22;11023;48.274;7.794;2023-07-31T13:03:04;26.80;99.90
21722;DHT22;11023;48.274;7.794;2023-07-31T13:05:30;27.20;99.90
21722;DHT22;11023;48.274;7.794;2023-07-31T13:07:56;27.50;99.90
21722;DHT22;11023;48.274;7.794;2023-07-31T13:10:25;27.60;99.90
21722;DHT22;11023;48.274;7.794;2023-07-31T13:12:52;27.70;99.90
21722;DHT22;11023;48.274;7.794;2023-07-31T13:15:18;27.60;99.90
21722;DHT22;11023;48.274;7.794;2023-07-31T13:17:43;27.70;99.90
21722;DHT22;11023;48.274;7.794;2023-07-31T13:20:12;27.80;99.90
21722;DHT22;11023;48.274;7.794;2023-07-31T13:22:38;27.80;99.90
21722;DHT22;11023;48.274;7.794;2023-07-31T13:25:04;27.70;99.90
21722;DHT22;11023;48.274;7.794;2023-07-31T13:27:31;27.70;99.90
21722;DHT22;11023;48.274;7.794;2023-07-31T13:29:57;27.70;99.90
21722;DHT22;11023;48.274;7.794;2023-07-31T13:32:23;28.00;99.90
21722;DHT22;11023;48.274;7.794;2023-07-31T13:34:49;28.30;99.90
21722;DHT22;11023;48.274;7.794;2023-07-31T13:37:17;28.60;99.90
21722;DHT22;11023;48.274;7.794;2023-07-31T13:39:43;29.00;99.90
21722;DHT22;11023;48.274;7.794;2023-07-31T13:42:12;29.30;99.90
21722;DHT22;11023;48.274;7.794;2023-07-31T13:44:48;29.60;99.90
21722;DHT22;11023;48.274;7.794;2023-07-31T13:47:23;29.80;99.90
21722;DHT22;11023;48.274;7.794;2023-07-31T13:49:54;29.70;99.90
21722;DHT22;11023;48.274;7.794;2023-07-31T13:52:26;29.50;99.90
21722;DHT22;11023;48.274;7.794;2023-07-31T13:54:51;29.30;99.90
21722;DHT22;11023;48.274;7.794;2023-07-31T13:57:17;29.00;99.90
21722;DHT22;11023;48.274;7.794;2023-07-31T13:59:49;28.80;99.90
21722;DHT22;11023;48.274;7.794;2023-07-31T14:02:18;28.60;99.90
21722;DHT22;11023;48.274;7.794;2023-07-31T14:04:52;28.50;99.90
21722;DHT22;11023;48.274;7.794;2023-07-31T14:07:18;28.30;99.90
21722;DHT22;11023;48.274;7.794;2023-07-31T14:09:44;28.20;99.90
21722;DHT22;11023;48.274;7.794;2023-07-31T14:12:10;28.30;99.90
21722;DHT22;11023;48.274;7.794;2023-07-31T14:14:35;28.30;99.90
21722;DHT22;11023;48.274;7.794;2023-07-31T14:17:01;28.40;99.90
21722;DHT22;11023;48.274;7.794;2023-07-31T14:19:27;28.50;99.90
21722;DHT22;11023;48.274;7.794;2023-07-31T14:21:53;28.50;99.90
21722;DHT22;11023;48.274;7.794;2023-07-31T14:24:20;28.50;99.90
21722;DHT22;11023;48.274;7.794;2023-07-31T14:26:46;28.70;99.90
21722;DHT22;11023;48.274;7.794;2023-07-31T14:29:11;28.70;99.90
21722;DHT22;11023;48.274;7.794;2023-07-31T14:31:37;28.80;99.90
21722;DHT22;11023;48.274;7.794;2023-07-31T14:34:03;28.70;99.90
21722;DHT22;11023;48.274;7.794;2023-07-31T14:36:29;28.80;99.90
21722;DHT22;11023;48.274;7.794;2023-07-31T14:38:54;28.70;99.90
21722;DHT22;11023;48.274;7.794;2023-07-31T14:41:20;28.80;99.90
21722;DHT22;11023;48.274;7.794;2023-07-31T14:43:46;28.80;99.90
21722;DHT22;11023;48.274;7.794;2023-07-31T14:46:12;28.80;99.90
21722;DHT22;11023;48.274;7.794;2023-07-31T14:48:38;28.80;99.90
21722;DHT22;11023;48.274;7.794;2023-07-31T14:51:03;28.80;99.90
21722;DHT22;11023;48.274;7.794;2023-07-31T14:53:29;28.70;99.90
21722;DHT22;11023;48.274;7.794;2023-07-31T14:55:55;28.80;99.90
21722;DHT22;11023;48.274;7.794;2023-07-31T14:58:21;28.70;99.90
21722;DHT22;11023;48.274;7.794;2023-07-31T15:00:47;28.70;99.90
21722;DHT22;11023;48.274;7.794;2023-07-31T15:03:12;28.80;99.90
21722;DHT22;11023;48.274;7.794;2023-07-31T15:05:38;28.80;99.90
21722;DHT22;11023;48.274;7.794;2023-07-31T15:08:03;28.80;99.90
21722;DHT22;11023;48.274;7.794;2023-07-31T15:10:29;28.80;99.90
21722;DHT22;11023;48.274;7.794;2023-07-31T15:12:55;28.80;99.90
21722;DHT22;11023;48.274;7.794;2023-07-31T15:15:21;28.80;99.90
21722;DHT22;11023;48.274;7.794;2023-07-31T15:17:46;28.90;99.90
21722;DHT22;11023;48.274;7.794;2023-07-31T15:20:12;29.00;99.90
21722;DHT22;11023;48.274;7.794;2023-07-31T15:22:38;29.20;99.90
21722;DHT22;11023;48.274;7.794;2023-07-31T15:25:04;29.20;99.90
21722;DHT22;11023;48.274;7.794;2023-07-31T15:27:29;29.20;99.90
21722;DHT22;11023;48.274;7.794;2023-07-31T15:29:55;29.10;99.90
21722;DHT22;11023;48.274;7.794;2023-07-31T15:32:21;28.90;99.90
21722;DHT22;11023;48.274;7.794;2023-07-31T15:34:47;28.80;99.90
21722;DHT22;11023;48.274;7.794;2023-07-31T15:37:13;28.60;99.90
21722;DHT22;11023;48.274;7.794;2023-07-31T15:39:39;28.50;99.90
21722;DHT22;11023;48.274;7.794;2023-07-31T15:42:05;28.40;99.90
21722;DHT22;11023;48.274;7.794;2023-07-31T15:44:31;28.60;99.90